Time,TemperatureF,DewpointF,PressureIn,WindDirection,WindDirectionDegrees,WindSpeedMPH,WindSpeedGustMPH,Humidity,HourlyPrecipIn,Conditions,Clouds,dailyrainin,SoftwareType,DateUTC
2013-08-30 00:01:00,70.9,69.1,29.80,WNW,287,7.0,12.0,94,0.00,,,0.79,Wunderground v.1.15,2013-08-30 05:01:00,
2013-08-30 00:06:00,70.9,69.4,29.80,WNW,290,8.0,12.0,95,0.00,,,0.00,Wunderground v.1.15,2013-08-30 05:06:00,
2013-08-30 00:11:00,70.9,69.4,29.80,WNW,285,6.0,9.0,95,0.00,,,0.00,Wunderground v.1.15,2013-08-30 05:11:00,
2013-08-30 00:16:00,70.9,69.4,29.80,WNW,294,6.0,11.0,95,0.00,,,0.00,Wunderground v.1.15,2013-08-30 05:16:00,
2013-08-30 00:21:00,70.9,69.4,29.80,WNW,285,6.0,8.0,95,0.00,,,0.00,Wunderground v.1.15,2013-08-30 05:21:00,
2013-08-30 00:26:00,70.9,69.4,29.80,West,260,10.0,10.0,95,0.00,,,0.00,Wunderground v.1.15,2013-08-30 05:26:00,
2013-08-30 00:31:00,70.9,69.4,29.80,WNW,290,6.0,9.0,95,0.00,,,0.00,Wunderground v.1.15,2013-08-30 05:31:00,
2013-08-30 00:36:00,70.9,69.7,29.80,WNW,297,8.0,11.0,96,0.00,,,0.00,Wunderground v.1.15,2013-08-30 05:36:00,
2013-08-30 00:41:00,70.9,69.7,29.80,WNW,294,5.0,6.0,96,0.00,,,0.00,Wunderground v.1.15,2013-08-30 05:41:00,
2013-08-30 00:46:00,70.7,69.5,29.80,WNW,293,5.0,6.0,96,0.00,,,0.00,Wunderground v.1.15,2013-08-30 05:46:00,
2013-08-30 00:51:00,70.6,69.4,29.80,WNW,287,4.0,4.0,96,0.00,,,0.00,Wunderground v.1.15,2013-08-30 05:51:00,
2013-08-30 00:56:00,70.5,69.3,29.80,WNW,291,4.0,6.0,96,0.00,,,0.00,Wunderground v.1.15,2013-08-30 05:56:00,
2013-08-30 01:01:00,70.4,69.2,29.80,West,281,2.0,4.0,96,0.00,,,0.00,Wunderground v.1.15,2013-08-30 06:01:00,
2013-08-30 01:06:00,70.2,69.0,29.80,WNW,294,2.0,5.0,96,0.00,,,0.00,Wunderground v.1.15,2013-08-30 06:06:00,
2013-08-30 01:11:00,70.0,69.1,29.80,West,276,2.0,3.0,97,0.00,,,0.00,Wunderground v.1.15,2013-08-30 06:11:00,
2013-08-30 01:16:00,69.8,68.9,29.80,West,281,2.0,3.0,97,0.00,,,0.00,Wunderground v.1.15,2013-08-30 06:16:00,
2013-08-30 01:21:00,69.7,68.8,29.80,WNW,290,1.0,2.0,97,0.00,,,0.00,Wunderground v.1.15,2013-08-30 06:21:00,
2013-08-30 01:26:00,69.5,68.6,29.80,West,259,0.0,2.0,97,0.00,,,0.00,Wunderground v.1.15,2013-08-30 06:26:00,
2013-08-30 01:31:00,69.3,68.7,29.80,WSW,258,0.0,1.0,98,0.00,,,0.00,Wunderground v.1.15,2013-08-30 06:31:00,
2013-08-30 01:36:00,69.2,68.6,29.80,WSW,257,0.0,1.0,98,0.00,,,0.00,Wunderground v.1.15,2013-08-30 06:36:00,
2013-08-30 01:41:00,68.9,68.3,29.80,West,259,0.0,0.0,98,0.00,,,0.00,Wunderground v.1.15,2013-08-30 06:41:00,
2013-08-30 01:46:00,68.6,68.0,29.81,WSW,258,0.0,0.0,98,0.00,,,0.00,Wunderground v.1.15,2013-08-30 06:46:00,
2013-08-30 01:51:00,68.1,67.5,29.80,West,259,0.0,0.0,98,0.00,,,0.00,Wunderground v.1.15,2013-08-30 06:51:00,
2013-08-30 01:56:00,67.5,66.9,29.80,SSW,210,0.0,0.0,98,0.00,,,0.00,Wunderground v.1.15,2013-08-30 06:56:00,
2013-08-30 02:01:00,67.1,66.8,29.80,SSW,204,0.0,0.0,99,0.00,,,0.00,Wunderground v.1.15,2013-08-30 07:01:00,
2013-08-30 02:06:00,66.8,66.5,29.80,SW,217,0.0,0.0,99,0.00,,,0.00,Wunderground v.1.15,2013-08-30 07:06:00,
2013-08-30 02:07:00,68.4,68.1,29.80,WSW,248,0.0,-999.0,99,0.00,,,0.00,Wunderground v.1.15,2013-08-30 07:07:00,
2013-08-30 02:11:00,66.8,66.5,29.80,SW,236,0.0,0.0,99,0.00,,,0.00,Wunderground v.1.15,2013-08-30 07:11:00,
2013-08-30 02:16:00,66.9,66.9,29.80,WSW,256,0.0,0.0,100,0.00,,,0.00,Wunderground v.1.15,2013-08-30 07:16:00,
2013-08-30 02:17:00,66.9,66.9,29.80,N/A,-737280,0.0,-999.0,100,0.00,,,0.00,Wunderground v.1.15,2013-08-30 07:17:00,
2013-08-30 02:21:00,66.9,66.9,29.80,West,273,0.0,0.0,100,0.00,,,0.00,Wunderground v.1.15,2013-08-30 07:21:00,
2013-08-30 02:22:00,66.9,66.9,29.80,N/A,-737280,0.0,-999.0,100,0.00,,,0.00,Wunderground v.1.15,2013-08-30 07:22:00,
2013-08-30 02:26:00,66.8,66.8,29.80,West,271,0.0,0.0,100,0.00,,,0.00,Wunderground v.1.15,2013-08-30 07:26:00,
2013-08-30 02:27:00,66.9,66.9,29.80,N/A,-737280,0.0,-999.0,100,0.00,,,0.00,Wunderground v.1.15,2013-08-30 07:27:00,
2013-08-30 02:31:00,66.9,66.9,29.80,West,271,0.0,0.0,100,0.00,,,0.00,Wunderground v.1.15,2013-08-30 07:31:00,
2013-08-30 02:32:00,66.9,66.9,29.80,N/A,-737280,0.0,-999.0,100,0.00,,,0.00,Wunderground v.1.15,2013-08-30 07:32:00,
2013-08-30 02:36:00,66.2,65.9,29.80,West,259,0.0,0.0,99,0.00,,,0.00,Wunderground v.1.15,2013-08-30 07:36:00,
2013-08-30 02:37:00,66.9,66.9,29.80,N/A,-737280,0.0,-999.0,100,0.00,,,0.00,Wunderground v.1.15,2013-08-30 07:37:00,
2013-08-30 02:41:00,66.0,66.0,29.80,North,349,0.0,0.0,100,0.00,,,0.00,Wunderground v.1.15,2013-08-30 07:41:00,
2013-08-30 02:42:00,66.9,66.9,29.80,N/A,-737280,0.0,-999.0,100,0.00,,,0.00,Wunderground v.1.15,2013-08-30 07:42:00,
2013-08-30 02:46:00,66.4,66.4,29.80,NW,321,0.0,4.0,100,0.00,,,0.00,Wunderground v.1.15,2013-08-30 07:46:00,
2013-08-30 02:47:00,66.6,66.3,29.81,WNW,293,1.0,-999.0,99,0.00,,,0.00,Wunderground v.1.15,2013-08-30 07:47:00,
2013-08-30 02:51:00,66.7,66.7,29.80,NW,316,3.0,4.0,100,0.00,,,0.00,Wunderground v.1.15,2013-08-30 07:51:00,
2013-08-30 02:52:00,66.6,66.3,29.81,WNW,293,1.0,-999.0,99,0.00,,,0.00,Wunderground v.1.15,2013-08-30 07:52:00,
2013-08-30 02:55:00,67.1,67.1,29.80,WNW,294,2.0,9.0,100,0.00,,,0.00,Wunderground v.1.15,2013-08-30 07:55:00,
2013-08-30 02:57:00,66.6,66.3,29.81,WNW,293,1.0,-999.0,99,0.00,,,0.00,Wunderground v.1.15,2013-08-30 07:57:00,
2013-08-30 03:00:00,67.3,67.0,29.81,NW,321,3.0,6.0,99,0.00,,,0.00,Wunderground v.1.15,2013-08-30 08:00:00,
2013-08-30 03:02:00,66.6,66.3,29.81,WNW,293,1.0,-999.0,99,0.00,,,0.00,Wunderground v.1.15,2013-08-30 08:02:00,
2013-08-30 03:05:00,67.6,66.7,29.81,WNW,285,2.0,10.0,97,0.00,,,0.00,Wunderground v.1.15,2013-08-30 08:05:00,
2013-08-30 03:07:00,66.6,66.3,29.81,WNW,293,1.0,-999.0,99,0.00,,,0.00,Wunderground v.1.15,2013-08-30 08:07:00,
2013-08-30 03:10:00,67.9,66.7,29.81,WNW,295,2.0,3.0,96,0.00,,,0.00,Wunderground v.1.15,2013-08-30 08:10:00,
2013-08-30 03:12:00,66.6,66.3,29.81,WNW,293,1.0,-999.0,99,0.00,,,0.00,Wunderground v.1.15,2013-08-30 08:12:00,
2013-08-30 03:15:00,68.0,66.8,29.82,WNW,287,3.0,7.0,96,0.00,,,0.00,Wunderground v.1.15,2013-08-30 08:15:00,
2013-08-30 03:17:00,68.0,65.6,29.82,WNW,293,4.0,-999.0,92,0.00,,,0.00,Wunderground v.1.15,2013-08-30 08:17:00,
2013-08-30 03:20:00,68.2,66.7,29.82,WNW,302,4.0,6.0,95,0.00,,,0.00,Wunderground v.1.15,2013-08-30 08:20:00,
2013-08-30 03:25:00,68.3,66.5,29.82,West,280,6.0,9.0,94,0.00,,,0.00,Wunderground v.1.15,2013-08-30 08:25:00,
2013-08-30 03:27:00,68.0,65.6,29.82,WNW,293,4.0,-999.0,92,0.00,,,0.00,Wunderground v.1.15,2013-08-30 08:27:00,
2013-08-30 03:30:00,68.3,65.9,29.82,West,281,9.0,9.0,92,0.00,,,0.00,Wunderground v.1.15,2013-08-30 08:30:00,
2013-08-30 03:32:00,68.0,65.6,29.82,WNW,293,4.0,-999.0,92,0.00,,,0.00,Wunderground v.1.15,2013-08-30 08:32:00,
2013-08-30 03:35:00,68.3,65.9,29.82,WNW,296,4.0,13.0,92,0.00,,,0.00,Wunderground v.1.15,2013-08-30 08:35:00,
2013-08-30 03:40:00,68.2,65.8,29.82,WNW,290,6.0,7.0,92,0.00,,,0.00,Wunderground v.1.15,2013-08-30 08:40:00,
2013-08-30 03:42:00,68.0,65.6,29.82,WNW,293,4.0,-999.0,92,0.00,,,0.00,Wunderground v.1.15,2013-08-30 08:42:00,
2013-08-30 03:45:00,68.1,65.4,29.83,WNW,302,5.0,10.0,91,0.00,,,0.00,Wunderground v.1.15,2013-08-30 08:45:00,
2013-08-30 03:47:00,68.1,65.4,29.82,WNW,293,5.0,-999.0,91,0.00,,,0.00,Wunderground v.1.15,2013-08-30 08:47:00,
2013-08-30 03:50:00,68.1,65.4,29.83,WNW,290,6.0,11.0,91,0.00,,,0.00,Wunderground v.1.15,2013-08-30 08:50:00,
2013-08-30 03:52:00,68.1,65.4,29.82,WNW,293,5.0,-999.0,91,0.00,,,0.00,Wunderground v.1.15,2013-08-30 08:52:00,
2013-08-30 03:55:00,68.0,65.6,29.83,NW,316,1.0,11.0,92,0.00,,,0.00,Wunderground v.1.15,2013-08-30 08:55:00,
2013-08-30 03:57:00,68.1,65.4,29.82,WNW,293,5.0,-999.0,91,0.00,,,0.00,Wunderground v.1.15,2013-08-30 08:57:00,
2013-08-30 04:01:00,67.9,65.2,29.82,WNW,294,1.0,9.0,91,0.00,,,0.00,Wunderground v.1.15,2013-08-30 09:01:00,
2013-08-30 04:02:00,68.1,65.4,29.82,WNW,293,5.0,-999.0,91,0.00,,,0.00,Wunderground v.1.15,2013-08-30 09:02:00,
2013-08-30 04:06:00,67.8,65.1,29.83,WNW,291,1.0,9.0,91,0.00,,,0.00,Wunderground v.1.15,2013-08-30 09:06:00,
2013-08-30 04:07:00,68.1,65.4,29.82,WNW,293,5.0,-999.0,91,0.00,,,0.00,Wunderground v.1.15,2013-08-30 09:07:00,
2013-08-30 04:11:00,67.7,65.0,29.83,WNW,296,0.0,2.0,91,0.00,,,0.00,Wunderground v.1.15,2013-08-30 09:11:00,
2013-08-30 04:12:00,68.1,65.4,29.82,WNW,293,5.0,-999.0,91,0.00,,,0.00,Wunderground v.1.15,2013-08-30 09:12:00,
2013-08-30 04:16:00,67.5,64.8,29.83,WNW,290,1.0,2.0,91,0.00,,,0.00,Wunderground v.1.15,2013-08-30 09:16:00,
2013-08-30 04:17:00,67.6,64.9,29.83,WNW,293,1.0,-999.0,91,0.00,,,0.00,Wunderground v.1.15,2013-08-30 09:17:00,
2013-08-30 04:20:00,67.5,64.8,29.83,WNW,285,2.0,3.0,91,0.00,,,0.00,Wunderground v.1.15,2013-08-30 09:20:00,
2013-08-30 04:22:00,67.6,64.9,29.83,WNW,293,1.0,-999.0,91,0.00,,,0.00,Wunderground v.1.15,2013-08-30 09:22:00,
2013-08-30 04:25:00,67.4,64.7,29.83,WNW,285,1.0,3.0,91,0.00,,,0.00,Wunderground v.1.15,2013-08-30 09:25:00,
2013-08-30 04:27:00,67.6,64.9,29.83,WNW,293,1.0,-999.0,91,0.00,,,0.00,Wunderground v.1.15,2013-08-30 09:27:00,
2013-08-30 04:30:00,67.2,64.5,29.83,WNW,293,2.0,2.0,91,0.00,,,0.00,Wunderground v.1.15,2013-08-30 09:30:00,
2013-08-30 04:32:00,67.6,64.9,29.83,WNW,293,1.0,-999.0,91,0.00,,,0.00,Wunderground v.1.15,2013-08-30 09:32:00,
2013-08-30 04:35:00,66.9,64.5,29.83,WNW,295,0.0,3.0,92,0.00,,,0.00,Wunderground v.1.15,2013-08-30 09:35:00,
2013-08-30 04:37:00,67.6,64.9,29.83,WNW,293,1.0,-999.0,91,0.00,,,0.00,Wunderground v.1.15,2013-08-30 09:37:00,
2013-08-30 04:40:00,66.5,64.1,29.83,NNW,328,0.0,1.0,92,0.00,,,0.00,Wunderground v.1.15,2013-08-30 09:40:00,
2013-08-30 04:42:00,67.6,64.9,29.83,WNW,293,1.0,-999.0,91,0.00,,,0.00,Wunderground v.1.15,2013-08-30 09:42:00,
2013-08-30 04:45:00,66.2,64.1,29.83,NW,308,0.0,2.0,93,0.00,,,0.00,Wunderground v.1.15,2013-08-30 09:45:00,
2013-08-30 04:47:00,66.3,64.5,29.84,West,270,1.0,-999.0,94,0.00,,,0.00,Wunderground v.1.15,2013-08-30 09:47:00,
2013-08-30 04:50:00,66.0,63.9,29.83,West,281,1.0,1.0,93,0.00,,,0.00,Wunderground v.1.15,2013-08-30 09:50:00,
2013-08-30 04:52:00,66.3,64.5,29.84,West,270,1.0,-999.0,94,0.00,,,0.00,Wunderground v.1.15,2013-08-30 09:52:00,
2013-08-30 04:55:00,65.9,64.1,29.83,West,262,0.0,3.0,94,0.00,,,0.00,Wunderground v.1.15,2013-08-30 09:55:00,
2013-08-30 04:57:00,66.3,64.5,29.84,West,270,1.0,-999.0,94,0.00,,,0.00,Wunderground v.1.15,2013-08-30 09:57:00,
2013-08-30 05:00:00,65.5,63.7,29.84,West,260,1.0,2.0,94,0.00,,,0.00,Wunderground v.1.15,2013-08-30 10:00:00,
2013-08-30 05:02:00,66.3,64.5,29.84,West,270,1.0,-999.0,94,0.00,,,0.00,Wunderground v.1.15,2013-08-30 10:02:00,
2013-08-30 05:05:00,65.3,63.8,29.84,West,277,1.0,2.0,95,0.00,,,0.00,Wunderground v.1.15,2013-08-30 10:05:00,
2013-08-30 05:07:00,66.3,64.5,29.84,West,270,1.0,-999.0,94,0.00,,,0.00,Wunderground v.1.15,2013-08-30 10:07:00,
2013-08-30 05:10:00,65.1,63.6,29.84,West,277,0.0,1.0,95,0.00,,,0.00,Wunderground v.1.15,2013-08-30 10:10:00,
2013-08-30 05:12:00,66.3,64.5,29.84,West,270,1.0,-999.0,94,0.00,,,0.00,Wunderground v.1.15,2013-08-30 10:12:00,
2013-08-30 05:15:00,65.0,63.5,29.85,West,277,0.0,1.0,95,0.00,,,0.00,Wunderground v.1.15,2013-08-30 10:15:00,
2013-08-30 05:17:00,65.1,63.9,29.85,West,270,0.0,-999.0,96,0.00,,,0.00,Wunderground v.1.15,2013-08-30 10:17:00,
2013-08-30 05:20:00,64.9,63.7,29.85,West,278,0.0,1.0,96,0.00,,,0.00,Wunderground v.1.15,2013-08-30 10:20:00,
2013-08-30 05:22:00,65.1,63.9,29.85,West,270,0.0,-999.0,96,0.00,,,0.00,Wunderground v.1.15,2013-08-30 10:22:00,
2013-08-30 05:25:00,65.1,63.9,29.85,NW,308,0.0,2.0,96,0.00,,,0.00,Wunderground v.1.15,2013-08-30 10:25:00,
2013-08-30 05:30:00,65.3,64.1,29.85,NW,308,0.0,0.0,96,0.00,,,0.00,Wunderground v.1.15,2013-08-30 10:30:00,
2013-08-30 05:32:00,65.1,63.9,29.85,West,270,0.0,-999.0,96,0.00,,,0.00,Wunderground v.1.15,2013-08-30 10:32:00,
2013-08-30 05:35:00,65.4,64.2,29.85,NW,308,0.0,0.0,96,0.00,,,0.00,Wunderground v.1.15,2013-08-30 10:35:00,
2013-08-30 05:37:00,65.1,63.9,29.85,West,270,0.0,-999.0,96,0.00,,,0.00,Wunderground v.1.15,2013-08-30 10:37:00,
2013-08-30 05:40:00,65.5,64.3,29.85,WNW,287,1.0,2.0,96,0.00,,,0.00,Wunderground v.1.15,2013-08-30 10:40:00,
2013-08-30 05:42:00,65.1,63.9,29.85,West,270,0.0,-999.0,96,0.00,,,0.00,Wunderground v.1.15,2013-08-30 10:42:00,
2013-08-30 05:45:00,65.6,64.4,29.85,WNW,287,1.0,2.0,96,0.00,,,0.00,Wunderground v.1.15,2013-08-30 10:45:00,
2013-08-30 05:47:00,65.6,64.1,29.86,WNW,293,0.0,-999.0,95,0.00,,,0.00,Wunderground v.1.15,2013-08-30 10:47:00,
2013-08-30 05:50:00,65.8,64.6,29.85,WNW,287,0.0,0.0,96,0.00,,,0.00,Wunderground v.1.15,2013-08-30 10:50:00,
2013-08-30 05:52:00,65.6,64.1,29.86,WNW,293,0.0,-999.0,95,0.00,,,0.00,Wunderground v.1.15,2013-08-30 10:52:00,
2013-08-30 05:55:00,65.9,64.7,29.86,WNW,287,0.0,2.0,96,0.00,,,0.00,Wunderground v.1.15,2013-08-30 10:55:00,
2013-08-30 05:57:00,65.6,64.1,29.86,WNW,293,0.0,-999.0,95,0.00,,,0.00,Wunderground v.1.15,2013-08-30 10:57:00,
2013-08-30 06:00:00,66.0,64.5,29.86,WNW,288,1.0,2.0,95,0.00,,,0.00,Wunderground v.1.15,2013-08-30 11:00:00,
2013-08-30 06:02:00,65.6,64.1,29.86,WNW,293,0.0,-999.0,95,0.00,,,0.00,Wunderground v.1.15,2013-08-30 11:02:00,
2013-08-30 06:05:00,66.2,64.7,29.86,WNW,287,1.0,3.0,95,0.00,,,0.00,Wunderground v.1.15,2013-08-30 11:05:00,
2013-08-30 06:07:00,65.6,64.1,29.86,WNW,293,0.0,-999.0,95,0.00,,,0.00,Wunderground v.1.15,2013-08-30 11:07:00,
2013-08-30 06:10:00,66.3,64.8,29.85,NW,305,4.0,5.0,95,0.00,,,0.00,Wunderground v.1.15,2013-08-30 11:10:00,
2013-08-30 06:12:00,65.6,64.1,29.86,WNW,293,0.0,-999.0,95,0.00,,,0.00,Wunderground v.1.15,2013-08-30 11:12:00,
2013-08-30 06:15:00,66.4,64.6,29.85,WNW,288,5.0,8.0,94,0.00,,,0.00,Wunderground v.1.15,2013-08-30 11:15:00,
2013-08-30 06:17:00,66.3,64.5,29.86,WNW,293,3.0,-999.0,94,0.00,,,0.00,Wunderground v.1.15,2013-08-30 11:17:00,
2013-08-30 06:20:00,66.5,64.7,29.85,West,280,2.0,8.0,94,0.00,,,0.00,Wunderground v.1.15,2013-08-30 11:20:00,
2013-08-30 06:22:00,66.3,64.5,29.86,WNW,293,3.0,-999.0,94,0.00,,,0.00,Wunderground v.1.15,2013-08-30 11:22:00,
2013-08-30 06:25:00,66.4,64.6,29.86,ENE,58,1.0,8.0,94,0.00,,,0.00,Wunderground v.1.15,2013-08-30 11:25:00,
2013-08-30 06:27:00,66.3,64.5,29.86,WNW,293,3.0,-999.0,94,0.00,,,0.00,Wunderground v.1.15,2013-08-30 11:27:00,
2013-08-30 06:30:00,66.3,64.5,29.86,SE,141,0.0,1.0,94,0.00,,,0.00,Wunderground v.1.15,2013-08-30 11:30:00,
2013-08-30 06:32:00,66.3,64.5,29.86,WNW,293,3.0,-999.0,94,0.00,,,0.00,Wunderground v.1.15,2013-08-30 11:32:00,
2013-08-30 06:35:00,66.1,64.3,29.87,NE,53,0.0,2.0,94,0.00,,,0.00,Wunderground v.1.15,2013-08-30 11:35:00,
2013-08-30 06:37:00,66.3,64.5,29.86,WNW,293,3.0,-999.0,94,0.00,,,0.00,Wunderground v.1.15,2013-08-30 11:37:00,
2013-08-30 06:40:00,66.2,64.7,29.86,NNW,337,1.0,1.0,95,0.00,,,0.00,Wunderground v.1.15,2013-08-30 11:40:00,
2013-08-30 06:42:00,66.3,64.5,29.86,WNW,293,3.0,-999.0,94,0.00,,,0.00,Wunderground v.1.15,2013-08-30 11:42:00,
2013-08-30 06:45:00,66.6,64.8,29.86,WNW,292,1.0,4.0,94,0.00,,,0.00,Wunderground v.1.15,2013-08-30 11:45:00,
2013-08-30 06:47:00,66.7,64.3,29.86,WNW,293,1.0,-999.0,92,0.00,,,0.00,Wunderground v.1.15,2013-08-30 11:47:00,
2013-08-30 06:50:00,66.9,64.8,29.86,NW,304,3.0,5.0,93,0.00,,,0.00,Wunderground v.1.15,2013-08-30 11:50:00,
2013-08-30 06:52:00,66.7,64.3,29.86,WNW,293,1.0,-999.0,92,0.00,,,0.00,Wunderground v.1.15,2013-08-30 11:52:00,
2013-08-30 06:55:00,67.1,65.0,29.87,NNW,338,3.0,5.0,93,0.00,,,0.00,Wunderground v.1.15,2013-08-30 11:55:00,
2013-08-30 06:57:00,66.7,64.3,29.86,WNW,293,1.0,-999.0,92,0.00,,,0.00,Wunderground v.1.15,2013-08-30 11:57:00,
2013-08-30 07:00:00,67.4,65.0,29.86,West,278,0.0,2.0,92,0.00,,,0.00,Wunderground v.1.15,2013-08-30 12:00:00,
2013-08-30 07:02:00,66.7,64.3,29.86,WNW,293,1.0,-999.0,92,0.00,,,0.00,Wunderground v.1.15,2013-08-30 12:02:00,
2013-08-30 07:05:00,67.7,65.0,29.87,WNW,294,0.0,4.0,91,0.00,,,0.00,Wunderground v.1.15,2013-08-30 12:05:00,
2013-08-30 07:07:00,66.7,64.3,29.86,WNW,293,1.0,-999.0,92,0.00,,,0.00,Wunderground v.1.15,2013-08-30 12:07:00,
2013-08-30 07:10:00,68.1,65.4,29.87,ENE,64,4.0,4.0,91,0.00,,,0.00,Wunderground v.1.15,2013-08-30 12:10:00,
2013-08-30 07:12:00,66.7,64.3,29.86,WNW,293,1.0,-999.0,92,0.00,,,0.00,Wunderground v.1.15,2013-08-30 12:12:00,
2013-08-30 07:15:00,67.8,65.1,29.88,ENE,77,1.0,5.0,91,0.00,,,0.00,Wunderground v.1.15,2013-08-30 12:15:00,
2013-08-30 07:17:00,68.1,64.7,29.88,ENE,68,2.0,-999.0,89,0.00,,,0.00,Wunderground v.1.15,2013-08-30 12:17:00,
2013-08-30 07:20:00,68.0,65.3,29.88,ENE,74,2.0,4.0,91,0.00,,,0.00,Wunderground v.1.15,2013-08-30 12:20:00,
2013-08-30 07:22:00,68.1,64.7,29.88,ENE,68,2.0,-999.0,89,0.00,,,0.00,Wunderground v.1.15,2013-08-30 12:22:00,
2013-08-30 07:25:00,68.5,65.4,29.88,NNW,328,0.0,5.0,90,0.00,,,0.00,Wunderground v.1.15,2013-08-30 12:25:00,
2013-08-30 07:27:00,68.1,64.7,29.88,ENE,68,2.0,-999.0,89,0.00,,,0.00,Wunderground v.1.15,2013-08-30 12:27:00,
2013-08-30 07:30:00,68.9,65.5,29.88,NW,315,2.0,4.0,89,0.00,,,0.00,Wunderground v.1.15,2013-08-30 12:30:00,
2013-08-30 07:32:00,68.1,64.7,29.88,ENE,68,2.0,-999.0,89,0.00,,,0.00,Wunderground v.1.15,2013-08-30 12:32:00,
2013-08-30 07:35:00,69.1,65.7,29.89,North,8,0.0,4.0,89,0.00,,,0.00,Wunderground v.1.15,2013-08-30 12:35:00,
2013-08-30 07:37:00,68.1,64.7,29.88,ENE,68,2.0,-999.0,89,0.00,,,0.00,Wunderground v.1.15,2013-08-30 12:37:00,
2013-08-30 07:40:00,69.7,66.3,29.89,SSW,193,0.0,1.0,89,0.00,,,0.00,Wunderground v.1.15,2013-08-30 12:40:00,
2013-08-30 07:42:00,68.1,64.7,29.88,ENE,68,2.0,-999.0,89,0.00,,,0.00,Wunderground v.1.15,2013-08-30 12:42:00,
2013-08-30 07:45:00,69.2,65.5,29.89,ENE,68,0.0,5.0,88,0.00,,,0.00,Wunderground v.1.15,2013-08-30 12:45:00,
2013-08-30 07:47:00,69.1,66.0,29.89,NNE,23,1.0,-999.0,90,0.00,,,0.00,Wunderground v.1.15,2013-08-30 12:47:00,
2013-08-30 07:50:00,69.0,65.9,29.89,North,350,1.0,4.0,90,0.00,,,0.00,Wunderground v.1.15,2013-08-30 12:50:00,
2013-08-30 07:52:00,69.1,66.0,29.89,NNE,23,1.0,-999.0,90,0.00,,,0.00,Wunderground v.1.15,2013-08-30 12:52:00,
2013-08-30 07:55:00,68.9,65.8,29.89,NE,47,1.0,5.0,90,0.00,,,0.00,Wunderground v.1.15,2013-08-30 12:55:00,
2013-08-30 07:57:00,69.1,66.0,29.89,NNE,23,1.0,-999.0,90,0.00,,,0.00,Wunderground v.1.15,2013-08-30 12:57:00,
2013-08-30 08:00:00,68.9,65.8,29.89,ENE,64,0.0,3.0,90,0.00,,,0.00,Wunderground v.1.15,2013-08-30 13:00:00,
2013-08-30 08:02:00,69.1,66.0,29.89,NNE,23,1.0,-999.0,90,0.00,,,0.00,Wunderground v.1.15,2013-08-30 13:02:00,
2013-08-30 08:05:00,69.3,66.2,29.89,NE,51,2.0,6.0,90,0.00,,,0.00,Wunderground v.1.15,2013-08-30 13:05:00,
2013-08-30 08:07:00,69.1,66.0,29.89,NNE,23,1.0,-999.0,90,0.00,,,0.00,Wunderground v.1.15,2013-08-30 13:07:00,
2013-08-30 08:10:00,69.6,65.9,29.89,West,271,1.0,2.0,88,0.00,,,0.00,Wunderground v.1.15,2013-08-30 13:10:00,
2013-08-30 08:12:00,69.1,66.0,29.89,NNE,23,1.0,-999.0,90,0.00,,,0.00,Wunderground v.1.15,2013-08-30 13:12:00,
2013-08-30 08:15:00,69.4,65.7,29.90,NE,53,1.0,4.0,88,0.00,,,0.00,Wunderground v.1.15,2013-08-30 13:15:00,
2013-08-30 08:17:00,69.3,65.6,29.91,NE,45,1.0,-999.0,88,0.00,,,0.00,Wunderground v.1.15,2013-08-30 13:17:00,
2013-08-30 08:20:00,69.3,65.9,29.90,NW,312,2.0,5.0,89,0.00,,,0.00,Wunderground v.1.15,2013-08-30 13:20:00,
2013-08-30 08:22:00,69.3,65.6,29.91,NE,45,1.0,-999.0,88,0.00,,,0.00,Wunderground v.1.15,2013-08-30 13:22:00,
2013-08-30 08:25:00,69.2,65.8,29.90,NNW,342,0.0,7.0,89,0.00,,,0.00,Wunderground v.1.15,2013-08-30 13:25:00,
2013-08-30 08:27:00,69.3,65.6,29.91,NE,45,1.0,-999.0,88,0.00,,,0.00,Wunderground v.1.15,2013-08-30 13:27:00,
2013-08-30 08:30:00,69.4,65.7,29.91,NNE,33,0.0,6.0,88,0.00,,,0.00,Wunderground v.1.15,2013-08-30 13:30:00,
2013-08-30 08:32:00,69.3,65.6,29.91,NE,45,1.0,-999.0,88,0.00,,,0.00,Wunderground v.1.15,2013-08-30 13:32:00,
2013-08-30 08:35:00,69.6,66.2,29.91,East,96,1.0,6.0,89,0.00,,,0.00,Wunderground v.1.15,2013-08-30 13:35:00,
2013-08-30 08:37:00,69.3,65.6,29.91,NE,45,1.0,-999.0,88,0.00,,,0.00,Wunderground v.1.15,2013-08-30 13:37:00,
2013-08-30 08:40:00,70.3,66.2,29.91,NE,51,1.0,6.0,87,0.00,,,0.00,Wunderground v.1.15,2013-08-30 13:40:00,
2013-08-30 08:42:00,69.3,65.6,29.91,NE,45,1.0,-999.0,88,0.00,,,0.00,Wunderground v.1.15,2013-08-30 13:42:00,
2013-08-30 08:45:00,70.9,66.5,29.91,NNE,13,4.0,7.0,86,0.00,,,0.00,Wunderground v.1.15,2013-08-30 13:45:00,
2013-08-30 08:47:00,71.0,65.6,29.91,NE,45,3.0,-999.0,83,0.00,,,0.00,Wunderground v.1.15,2013-08-30 13:47:00,
2013-08-30 08:50:00,71.7,67.3,29.91,ENE,67,2.0,10.0,86,0.00,,,0.00,Wunderground v.1.15,2013-08-30 13:50:00,
2013-08-30 08:52:00,71.0,65.6,29.91,NE,45,3.0,-999.0,83,0.00,,,0.00,Wunderground v.1.15,2013-08-30 13:52:00,
2013-08-30 08:55:00,72.0,66.6,29.91,NE,53,5.0,10.0,83,0.00,,,0.00,Wunderground v.1.15,2013-08-30 13:55:00,
2013-08-30 08:57:00,71.0,65.6,29.91,NE,45,3.0,-999.0,83,0.00,,,0.00,Wunderground v.1.15,2013-08-30 13:57:00,
2013-08-30 09:00:00,72.1,66.6,29.91,ENE,61,5.0,6.0,83,0.00,,,0.00,Wunderground v.1.15,2013-08-30 14:00:00,
2013-08-30 09:02:00,71.0,65.6,29.91,NE,45,3.0,-999.0,83,0.00,,,0.00,Wunderground v.1.15,2013-08-30 14:02:00,
2013-08-30 09:05:00,72.4,66.6,29.91,ENE,61,6.0,9.0,82,0.00,,,0.00,Wunderground v.1.15,2013-08-30 14:05:00,
2013-08-30 09:07:00,71.0,65.6,29.91,NE,45,3.0,-999.0,83,0.00,,,0.00,Wunderground v.1.15,2013-08-30 14:07:00,
2013-08-30 09:10:00,72.6,66.8,29.92,East,84,8.0,8.0,82,0.00,,,0.00,Wunderground v.1.15,2013-08-30 14:10:00,
2013-08-30 09:12:00,71.0,65.6,29.91,NE,45,3.0,-999.0,83,0.00,,,0.00,Wunderground v.1.15,2013-08-30 14:12:00,
2013-08-30 09:15:00,72.8,66.3,29.92,NW,324,1.0,11.0,80,0.00,,,0.00,Wunderground v.1.15,2013-08-30 14:15:00,
2013-08-30 09:17:00,72.9,66.0,29.92,NE,45,4.0,-999.0,79,0.00,,,0.00,Wunderground v.1.15,2013-08-30 14:17:00,
2013-08-30 09:20:00,73.0,66.5,29.92,ENE,60,3.0,4.0,80,0.00,,,0.00,Wunderground v.1.15,2013-08-30 14:20:00,
2013-08-30 09:22:00,72.9,66.0,29.92,NE,45,4.0,-999.0,79,0.00,,,0.00,Wunderground v.1.15,2013-08-30 14:22:00,
2013-08-30 09:25:00,73.3,66.4,29.92,NE,50,7.0,11.0,79,0.00,,,0.00,Wunderground v.1.15,2013-08-30 14:25:00,
2013-08-30 09:27:00,72.9,66.0,29.92,NE,45,4.0,-999.0,79,0.00,,,0.00,Wunderground v.1.15,2013-08-30 14:27:00,
2013-08-30 09:30:00,73.3,66.8,29.92,ENE,64,5.0,5.0,80,0.00,,,0.00,Wunderground v.1.15,2013-08-30 14:30:00,
2013-08-30 09:32:00,72.9,66.0,29.92,NE,45,4.0,-999.0,79,0.00,,,0.00,Wunderground v.1.15,2013-08-30 14:32:00,
2013-08-30 09:35:00,73.4,66.9,29.92,ENE,64,6.0,9.0,80,0.00,,,0.00,Wunderground v.1.15,2013-08-30 14:35:00,
2013-08-30 09:37:00,72.9,66.0,29.92,NE,45,4.0,-999.0,79,0.00,,,0.00,Wunderground v.1.15,2013-08-30 14:37:00,
2013-08-30 09:40:00,73.3,66.4,29.92,ENE,57,6.0,7.0,79,0.00,,,0.00,Wunderground v.1.15,2013-08-30 14:40:00,
2013-08-30 09:42:00,72.9,66.0,29.92,NE,45,4.0,-999.0,79,0.00,,,0.00,Wunderground v.1.15,2013-08-30 14:42:00,
2013-08-30 09:45:00,73.4,66.1,29.92,NE,44,6.0,13.0,78,0.00,,,0.00,Wunderground v.1.15,2013-08-30 14:45:00,
2013-08-30 09:47:00,73.5,65.8,29.92,ENE,68,6.0,-999.0,77,0.00,,,0.00,Wunderground v.1.15,2013-08-30 14:47:00,
2013-08-30 09:50:00,73.6,66.3,29.92,NE,51,8.0,9.0,78,0.00,,,0.00,Wunderground v.1.15,2013-08-30 14:50:00,
2013-08-30 09:52:00,73.5,65.8,29.92,ENE,68,6.0,-999.0,77,0.00,,,0.00,Wunderground v.1.15,2013-08-30 14:52:00,
2013-08-30 09:55:00,73.7,66.4,29.92,NE,47,7.0,14.0,78,0.00,,,0.00,Wunderground v.1.15,2013-08-30 14:55:00,
2013-08-30 09:57:00,73.5,65.8,29.92,ENE,68,6.0,-999.0,77,0.00,,,0.00,Wunderground v.1.15,2013-08-30 14:57:00,
2013-08-30 10:00:00,73.9,66.2,29.92,ENE,67,4.0,7.0,77,0.00,,,0.00,Wunderground v.1.15,2013-08-30 15:00:00,
2013-08-30 10:02:00,73.5,65.8,29.92,ENE,68,6.0,-999.0,77,0.00,,,0.00,Wunderground v.1.15,2013-08-30 15:02:00,
2013-08-30 10:05:00,74.2,66.1,29.93,ENE,69,7.0,13.0,76,0.00,,,0.00,Wunderground v.1.15,2013-08-30 15:05:00,
2013-08-30 10:07:00,73.5,65.8,29.92,ENE,68,6.0,-999.0,77,0.00,,,0.00,Wunderground v.1.15,2013-08-30 15:07:00,
2013-08-30 10:10:00,74.4,66.7,29.93,NE,39,5.0,7.0,77,0.00,,,0.00,Wunderground v.1.15,2013-08-30 15:10:00,
2013-08-30 10:12:00,73.5,65.8,29.92,ENE,68,6.0,-999.0,77,0.00,,,0.00,Wunderground v.1.15,2013-08-30 15:12:00,
2013-08-30 10:15:00,74.8,66.7,29.93,NE,54,6.0,10.0,76,0.00,,,0.00,Wunderground v.1.15,2013-08-30 15:15:00,
2013-08-30 10:17:00,74.4,66.3,29.93,ENE,68,7.0,-999.0,76,0.00,,,0.00,Wunderground v.1.15,2013-08-30 15:17:00,
2013-08-30 10:20:00,74.6,66.9,29.92,ENE,60,7.0,9.0,77,0.00,,,0.00,Wunderground v.1.15,2013-08-30 15:20:00,
2013-08-30 10:22:00,74.4,66.3,29.93,ENE,68,7.0,-999.0,76,0.00,,,0.00,Wunderground v.1.15,2013-08-30 15:22:00,
2013-08-30 10:25:00,74.3,66.2,29.92,NE,51,9.0,12.0,76,0.00,,,0.00,Wunderground v.1.15,2013-08-30 15:25:00,
2013-08-30 10:27:00,74.4,66.3,29.93,ENE,68,7.0,-999.0,76,0.00,,,0.00,Wunderground v.1.15,2013-08-30 15:27:00,
2013-08-30 10:30:00,74.3,66.2,29.93,ENE,66,5.0,8.0,76,0.00,,,0.00,Wunderground v.1.15,2013-08-30 15:30:00,
2013-08-30 10:32:00,74.4,66.3,29.93,ENE,68,7.0,-999.0,76,0.00,,,0.00,Wunderground v.1.15,2013-08-30 15:32:00,
2013-08-30 10:35:00,74.8,67.5,29.93,ENE,67,6.0,9.0,78,0.00,,,0.00,Wunderground v.1.15,2013-08-30 15:35:00,
2013-08-30 10:37:00,74.4,66.3,29.93,ENE,68,7.0,-999.0,76,0.00,,,0.00,Wunderground v.1.15,2013-08-30 15:37:00,
2013-08-30 10:40:00,75.0,66.5,29.93,East,86,14.0,14.0,75,0.00,,,0.00,Wunderground v.1.15,2013-08-30 15:40:00,
2013-08-30 10:42:00,74.4,66.3,29.93,ENE,68,7.0,-999.0,76,0.00,,,0.00,Wunderground v.1.15,2013-08-30 15:42:00,
2013-08-30 10:45:00,74.9,66.4,29.93,ENE,67,9.0,16.0,75,0.00,,,0.00,Wunderground v.1.15,2013-08-30 15:45:00,
2013-08-30 10:47:00,74.8,66.0,29.93,ENE,68,8.0,-999.0,74,0.00,,,0.00,Wunderground v.1.15,2013-08-30 15:47:00,
2013-08-30 10:50:00,74.9,66.1,29.93,East,89,6.0,9.0,74,0.00,,,0.00,Wunderground v.1.15,2013-08-30 15:50:00,
2013-08-30 10:52:00,74.8,66.0,29.93,ENE,68,8.0,-999.0,74,0.00,,,0.00,Wunderground v.1.15,2013-08-30 15:52:00,
2013-08-30 10:55:00,74.5,65.7,29.93,ENE,73,7.0,14.0,74,0.00,,,0.00,Wunderground v.1.15,2013-08-30 15:55:00,
2013-08-30 11:00:00,74.7,66.6,29.93,ENE,76,6.0,9.0,76,0.00,,,0.00,Wunderground v.1.15,2013-08-30 16:00:00,
2013-08-30 11:02:00,74.8,66.0,29.93,ENE,68,8.0,-999.0,74,0.00,,,0.00,Wunderground v.1.15,2013-08-30 16:02:00,
2013-08-30 11:05:00,74.8,66.3,29.93,East,100,13.0,14.0,75,0.00,,,0.00,Wunderground v.1.15,2013-08-30 16:05:00,
2013-08-30 11:07:00,74.8,66.0,29.93,ENE,68,8.0,-999.0,74,0.00,,,0.00,Wunderground v.1.15,2013-08-30 16:07:00,
2013-08-30 11:10:00,74.8,66.0,29.93,East,87,8.0,9.0,74,0.00,,,0.00,Wunderground v.1.15,2013-08-30 16:10:00,
2013-08-30 11:12:00,74.8,66.0,29.93,ENE,68,8.0,-999.0,74,0.00,,,0.00,Wunderground v.1.15,2013-08-30 16:12:00,
2013-08-30 11:15:00,74.7,65.9,29.94,ENE,77,6.0,12.0,74,0.00,,,0.00,Wunderground v.1.15,2013-08-30 16:15:00,
2013-08-30 11:17:00,74.9,66.1,29.93,ENE,68,8.0,-999.0,74,0.00,,,0.00,Wunderground v.1.15,2013-08-30 16:17:00,
2013-08-30 11:20:00,75.0,66.1,29.94,ENE,72,10.0,10.0,74,0.00,,,0.00,Wunderground v.1.15,2013-08-30 16:20:00,
2013-08-30 11:22:00,74.9,66.1,29.93,ENE,68,8.0,-999.0,74,0.00,,,0.00,Wunderground v.1.15,2013-08-30 16:22:00,
2013-08-30 11:25:00,75.1,65.5,29.93,ENE,67,10.0,13.0,72,0.00,,,0.00,Wunderground v.1.15,2013-08-30 16:25:00,
2013-08-30 11:27:00,74.9,66.1,29.93,ENE,68,8.0,-999.0,74,0.00,,,0.00,Wunderground v.1.15,2013-08-30 16:27:00,
2013-08-30 11:30:00,75.3,65.2,29.93,ENE,77,6.0,8.0,71,0.00,,,0.00,Wunderground v.1.15,2013-08-30 16:30:00,
2013-08-30 11:32:00,74.9,66.1,29.93,ENE,68,8.0,-999.0,74,0.00,,,0.00,Wunderground v.1.15,2013-08-30 16:32:00,
2013-08-30 11:35:00,75.6,65.5,29.93,ENE,63,9.0,13.0,71,0.00,,,0.00,Wunderground v.1.15,2013-08-30 16:35:00,
2013-08-30 11:37:00,74.9,66.1,29.93,ENE,68,8.0,-999.0,74,0.00,,,0.00,Wunderground v.1.15,2013-08-30 16:37:00,
2013-08-30 11:40:00,76.0,67.1,29.93,ENE,77,10.0,10.0,74,0.00,,,0.00,Wunderground v.1.15,2013-08-30 16:40:00,
2013-08-30 11:42:00,74.9,66.1,29.93,ENE,68,8.0,-999.0,74,0.00,,,0.00,Wunderground v.1.15,2013-08-30 16:42:00,
2013-08-30 11:45:00,76.1,65.2,29.93,ENE,70,12.0,13.0,69,0.00,,,0.00,Wunderground v.1.15,2013-08-30 16:45:00,
2013-08-30 11:47:00,76.0,65.1,29.93,ENE,68,8.0,-999.0,69,0.00,,,0.00,Wunderground v.1.15,2013-08-30 16:47:00,
2013-08-30 11:50:00,76.3,64.5,29.93,East,96,12.0,13.0,67,0.00,,,0.00,Wunderground v.1.15,2013-08-30 16:50:00,
2013-08-30 11:52:00,76.0,65.1,29.93,ENE,68,8.0,-999.0,69,0.00,,,0.00,Wunderground v.1.15,2013-08-30 16:52:00,
2013-08-30 11:55:00,76.3,64.5,29.93,ENE,75,10.0,13.0,67,0.00,,,0.00,Wunderground v.1.15,2013-08-30 16:55:00,
2013-08-30 11:57:00,76.0,65.1,29.93,ENE,68,8.0,-999.0,69,0.00,,,0.00,Wunderground v.1.15,2013-08-30 16:57:00,
2013-08-30 12:00:00,76.1,65.2,29.93,ESE,120,8.0,12.0,69,0.00,,,0.00,Wunderground v.1.15,2013-08-30 17:00:00,
2013-08-30 12:02:00,76.0,65.1,29.93,ENE,68,8.0,-999.0,69,0.00,,,0.00,Wunderground v.1.15,2013-08-30 17:02:00,
2013-08-30 12:05:00,76.2,65.7,29.93,East,79,10.0,14.0,70,0.00,,,0.00,Wunderground v.1.15,2013-08-30 17:05:00,
2013-08-30 12:07:00,76.0,65.1,29.93,ENE,68,8.0,-999.0,69,0.00,,,0.00,Wunderground v.1.15,2013-08-30 17:07:00,
2013-08-30 12:10:00,76.2,64.9,29.93,East,84,10.0,11.0,68,0.00,,,0.00,Wunderground v.1.15,2013-08-30 17:10:00,
2013-08-30 12:12:00,76.0,65.1,29.93,ENE,68,8.0,-999.0,69,0.00,,,0.00,Wunderground v.1.15,2013-08-30 17:12:00,
2013-08-30 12:15:00,76.1,64.8,29.93,ENE,76,12.0,16.0,68,0.00,,,0.00,Wunderground v.1.15,2013-08-30 17:15:00,
2013-08-30 12:17:00,76.1,63.9,29.92,East,90,9.0,-999.0,66,0.00,,,0.00,Wunderground v.1.15,2013-08-30 17:17:00,
2013-08-30 12:20:00,76.0,65.1,29.93,ENE,67,7.0,10.0,69,0.00,,,0.00,Wunderground v.1.15,2013-08-30 17:20:00,
2013-08-30 12:22:00,76.1,63.9,29.92,East,90,9.0,-999.0,66,0.00,,,0.00,Wunderground v.1.15,2013-08-30 17:22:00,
2013-08-30 12:25:00,76.1,64.8,29.93,East,92,8.0,14.0,68,0.00,,,0.00,Wunderground v.1.15,2013-08-30 17:25:00,
2013-08-30 12:27:00,76.1,63.9,29.92,East,90,9.0,-999.0,66,0.00,,,0.00,Wunderground v.1.15,2013-08-30 17:27:00,
2013-08-30 12:30:00,76.2,64.9,29.92,ENE,73,11.0,11.0,68,0.00,,,0.00,Wunderground v.1.15,2013-08-30 17:30:00,
2013-08-30 12:32:00,76.1,63.9,29.92,East,90,9.0,-999.0,66,0.00,,,0.00,Wunderground v.1.15,2013-08-30 17:32:00,
2013-08-30 12:35:00,76.2,64.0,29.92,ENE,70,11.0,16.0,66,0.00,,,0.00,Wunderground v.1.15,2013-08-30 17:35:00,
2013-08-30 12:37:00,76.1,63.9,29.92,East,90,9.0,-999.0,66,0.00,,,0.00,Wunderground v.1.15,2013-08-30 17:37:00,
2013-08-30 12:40:00,76.2,65.7,29.93,East,101,10.0,11.0,70,0.00,,,0.00,Wunderground v.1.15,2013-08-30 17:40:00,
2013-08-30 12:42:00,76.1,63.9,29.92,East,90,9.0,-999.0,66,0.00,,,0.00,Wunderground v.1.15,2013-08-30 17:42:00,
2013-08-30 12:45:00,76.3,65.4,29.92,East,84,9.0,13.0,69,0.00,,,0.00,Wunderground v.1.15,2013-08-30 17:45:00,
2013-08-30 12:47:00,76.3,64.5,29.92,East,90,9.0,-999.0,67,0.00,,,0.00,Wunderground v.1.15,2013-08-30 17:47:00,
2013-08-30 12:50:00,76.7,65.8,29.93,ESE,107,9.0,10.0,69,0.00,,,0.00,Wunderground v.1.15,2013-08-30 17:50:00,
2013-08-30 12:52:00,76.3,64.5,29.92,East,90,9.0,-999.0,67,0.00,,,0.00,Wunderground v.1.15,2013-08-30 17:52:00,
2013-08-30 12:55:00,76.6,65.7,29.92,ESE,117,7.0,14.0,69,0.00,,,0.00,Wunderground v.1.15,2013-08-30 17:55:00,
2013-08-30 12:57:00,76.3,64.5,29.92,East,90,9.0,-999.0,67,0.00,,,0.00,Wunderground v.1.15,2013-08-30 17:57:00,
2013-08-30 13:00:00,76.3,65.4,29.92,East,95,10.0,10.0,69,0.00,,,0.00,Wunderground v.1.15,2013-08-30 18:00:00,
2013-08-30 13:02:00,76.3,64.5,29.92,East,90,9.0,-999.0,67,0.00,,,0.00,Wunderground v.1.15,2013-08-30 18:02:00,
2013-08-30 13:05:00,75.8,64.9,29.92,East,100,10.0,13.0,69,0.00,,,0.00,Wunderground v.1.15,2013-08-30 18:05:00,
2013-08-30 13:07:00,76.3,64.5,29.92,East,90,9.0,-999.0,67,0.00,,,0.00,Wunderground v.1.15,2013-08-30 18:07:00,
2013-08-30 13:10:00,75.8,64.9,29.92,East,99,10.0,11.0,69,0.00,,,0.00,Wunderground v.1.15,2013-08-30 18:10:00,
2013-08-30 13:12:00,76.3,64.5,29.92,East,90,9.0,-999.0,67,0.00,,,0.00,Wunderground v.1.15,2013-08-30 18:12:00,
2013-08-30 13:15:00,76.1,65.2,29.92,NE,55,9.0,11.0,69,0.00,,,0.00,Wunderground v.1.15,2013-08-30 18:15:00,
2013-08-30 13:17:00,76.2,64.9,29.92,East,90,7.0,-999.0,68,0.00,,,0.00,Wunderground v.1.15,2013-08-30 18:17:00,
2013-08-30 13:20:00,76.4,64.6,29.92,ENE,68,14.0,14.0,67,0.00,,,0.00,Wunderground v.1.15,2013-08-30 18:20:00,
2013-08-30 13:22:00,76.2,64.9,29.92,East,90,7.0,-999.0,68,0.00,,,0.00,Wunderground v.1.15,2013-08-30 18:22:00,
2013-08-30 13:25:00,76.5,65.1,29.92,ESE,108,10.0,14.0,68,0.00,,,0.00,Wunderground v.1.15,2013-08-30 18:25:00,
2013-08-30 13:27:00,76.2,64.9,29.92,East,90,7.0,-999.0,68,0.00,,,0.00,Wunderground v.1.15,2013-08-30 18:27:00,
2013-08-30 13:30:00,76.6,66.1,29.92,ENE,61,6.0,7.0,70,0.00,,,0.00,Wunderground v.1.15,2013-08-30 18:30:00,
2013-08-30 13:32:00,76.2,64.9,29.92,East,90,7.0,-999.0,68,0.00,,,0.00,Wunderground v.1.15,2013-08-30 18:32:00,
2013-08-30 13:35:00,76.7,66.2,29.92,ESE,110,5.0,8.0,70,0.00,,,0.00,Wunderground v.1.15,2013-08-30 18:35:00,
2013-08-30 13:37:00,76.2,64.9,29.92,East,90,7.0,-999.0,68,0.00,,,0.00,Wunderground v.1.15,2013-08-30 18:37:00,
2013-08-30 13:40:00,76.7,65.3,29.92,East,81,5.0,6.0,68,0.00,,,0.00,Wunderground v.1.15,2013-08-30 18:40:00,
2013-08-30 13:42:00,76.2,64.9,29.92,East,90,7.0,-999.0,68,0.00,,,0.00,Wunderground v.1.15,2013-08-30 18:42:00,
2013-08-30 13:45:00,76.9,66.8,29.92,ENE,75,8.0,12.0,71,0.00,,,0.00,Wunderground v.1.15,2013-08-30 18:45:00,
2013-08-30 13:47:00,77.0,64.8,29.92,ESE,113,6.0,-999.0,66,0.00,,,0.00,Wunderground v.1.15,2013-08-30 18:47:00,
2013-08-30 13:50:00,77.2,66.2,29.92,East,93,9.0,9.0,69,0.00,,,0.00,Wunderground v.1.15,2013-08-30 18:50:00,
2013-08-30 13:52:00,77.0,64.8,29.92,ESE,113,6.0,-999.0,66,0.00,,,0.00,Wunderground v.1.15,2013-08-30 18:52:00,
2013-08-30 13:55:00,77.1,65.3,29.92,SE,124,4.0,11.0,67,0.00,,,0.00,Wunderground v.1.15,2013-08-30 18:55:00,
2013-08-30 13:57:00,77.0,64.8,29.92,ESE,113,6.0,-999.0,66,0.00,,,0.00,Wunderground v.1.15,2013-08-30 18:57:00,
2013-08-30 14:00:00,77.2,65.0,29.92,ESE,108,9.0,11.0,66,0.00,,,0.00,Wunderground v.1.15,2013-08-30 19:00:00,
2013-08-30 14:02:00,77.0,64.8,29.92,ESE,113,6.0,-999.0,66,0.00,,,0.00,Wunderground v.1.15,2013-08-30 19:02:00,
2013-08-30 14:05:00,77.2,65.0,29.92,East,94,6.0,11.0,66,0.00,,,0.00,Wunderground v.1.15,2013-08-30 19:05:00,
2013-08-30 14:07:00,77.0,64.8,29.92,ESE,113,6.0,-999.0,66,0.00,,,0.00,Wunderground v.1.15,2013-08-30 19:07:00,
2013-08-30 14:09:00,77.2,65.0,29.92,ESE,117,6.0,11.0,66,0.00,,,0.00,Wunderground v.1.15,2013-08-30 19:09:00,
2013-08-30 14:12:00,77.0,64.8,29.92,ESE,113,6.0,-999.0,66,0.00,,,0.00,Wunderground v.1.15,2013-08-30 19:12:00,
2013-08-30 14:14:00,77.0,64.8,29.92,ESE,104,5.0,11.0,66,0.00,,,0.00,Wunderground v.1.15,2013-08-30 19:14:00,
2013-08-30 14:17:00,77.1,65.3,29.92,East,90,6.0,-999.0,67,0.00,,,0.00,Wunderground v.1.15,2013-08-30 19:17:00,
2013-08-30 14:19:00,77.0,64.3,29.92,East,92,7.0,11.0,65,0.00,,,0.00,Wunderground v.1.15,2013-08-30 19:19:00,
2013-08-30 14:22:00,77.1,65.3,29.92,East,90,6.0,-999.0,67,0.00,,,0.00,Wunderground v.1.15,2013-08-30 19:22:00,
2013-08-30 14:24:00,76.9,65.1,29.92,East,101,6.0,9.0,67,0.00,,,0.00,Wunderground v.1.15,2013-08-30 19:24:00,
2013-08-30 14:27:00,77.1,65.3,29.92,East,90,6.0,-999.0,67,0.00,,,0.00,Wunderground v.1.15,2013-08-30 19:27:00,
2013-08-30 14:29:00,77.1,64.9,29.92,ESE,115,9.0,13.0,66,0.00,,,0.00,Wunderground v.1.15,2013-08-30 19:29:00,
2013-08-30 14:32:00,77.1,65.3,29.92,East,90,6.0,-999.0,67,0.00,,,0.00,Wunderground v.1.15,2013-08-30 19:32:00,
2013-08-30 14:34:00,77.0,63.4,29.92,ESE,102,4.0,12.0,63,0.00,,,0.00,Wunderground v.1.15,2013-08-30 19:34:00,
2013-08-30 14:37:00,77.1,65.3,29.92,East,90,6.0,-999.0,67,0.00,,,0.00,Wunderground v.1.15,2013-08-30 19:37:00,
2013-08-30 14:39:00,76.8,66.3,29.92,ESE,103,8.0,12.0,70,0.00,,,0.00,Wunderground v.1.15,2013-08-30 19:39:00,
2013-08-30 14:42:00,77.1,65.3,29.92,East,90,6.0,-999.0,67,0.00,,,0.00,Wunderground v.1.15,2013-08-30 19:42:00,
2013-08-30 14:44:00,76.5,64.3,29.92,ESE,115,4.0,8.0,66,0.00,,,0.00,Wunderground v.1.15,2013-08-30 19:44:00,
2013-08-30 14:47:00,76.6,64.4,29.92,ESE,113,6.0,-999.0,66,0.00,,,0.00,Wunderground v.1.15,2013-08-30 19:47:00,
2013-08-30 14:49:00,76.2,64.4,29.93,SE,127,5.0,11.0,67,0.00,,,0.00,Wunderground v.1.15,2013-08-30 19:49:00,
2013-08-30 14:52:00,76.6,64.4,29.92,ESE,113,6.0,-999.0,66,0.00,,,0.00,Wunderground v.1.15,2013-08-30 19:52:00,
2013-08-30 14:54:00,76.3,64.5,29.93,ESE,102,2.0,9.0,67,0.00,,,0.00,Wunderground v.1.15,2013-08-30 19:54:00,
2013-08-30 14:57:00,76.6,64.4,29.92,ESE,113,6.0,-999.0,66,0.00,,,0.00,Wunderground v.1.15,2013-08-30 19:57:00,
2013-08-30 14:59:00,76.4,64.6,29.92,SE,144,4.0,10.0,67,0.00,,,0.00,Wunderground v.1.15,2013-08-30 19:59:00,
2013-08-30 15:02:00,76.6,64.4,29.92,ESE,113,6.0,-999.0,66,0.00,,,0.00,Wunderground v.1.15,2013-08-30 20:02:00,
2013-08-30 15:04:00,76.1,66.0,29.92,SSE,162,6.0,10.0,71,0.00,,,0.00,Wunderground v.1.15,2013-08-30 20:04:00,
2013-08-30 15:07:00,76.6,64.4,29.92,ESE,113,6.0,-999.0,66,0.00,,,0.00,Wunderground v.1.15,2013-08-30 20:07:00,
2013-08-30 15:09:00,75.9,64.6,29.92,ESE,111,5.0,10.0,68,0.00,,,0.00,Wunderground v.1.15,2013-08-30 20:09:00,
2013-08-30 15:12:00,76.6,64.4,29.92,ESE,113,6.0,-999.0,66,0.00,,,0.00,Wunderground v.1.15,2013-08-30 20:12:00,
2013-08-30 15:14:00,75.8,65.3,29.92,ESE,113,6.0,9.0,70,0.00,,,0.00,Wunderground v.1.15,2013-08-30 20:14:00,
2013-08-30 15:17:00,75.7,66.0,29.92,SE,135,5.0,-999.0,72,0.00,,,0.00,Wunderground v.1.15,2013-08-30 20:17:00,
2013-08-30 15:19:00,75.7,65.2,29.92,ESE,111,8.0,10.0,70,0.00,,,0.00,Wunderground v.1.15,2013-08-30 20:19:00,
2013-08-30 15:22:00,75.7,66.0,29.92,SE,135,5.0,-999.0,72,0.00,,,0.00,Wunderground v.1.15,2013-08-30 20:22:00,
2013-08-30 15:24:00,75.4,65.3,29.92,East,100,3.0,10.0,71,0.00,,,0.00,Wunderground v.1.15,2013-08-30 20:24:00,
2013-08-30 15:27:00,75.7,66.0,29.92,SE,135,5.0,-999.0,72,0.00,,,0.00,Wunderground v.1.15,2013-08-30 20:27:00,
2013-08-30 15:29:00,75.4,65.7,29.92,SE,124,5.0,10.0,72,0.00,,,0.00,Wunderground v.1.15,2013-08-30 20:29:00,
2013-08-30 15:32:00,75.7,66.0,29.92,SE,135,5.0,-999.0,72,0.00,,,0.00,Wunderground v.1.15,2013-08-30 20:32:00,
2013-08-30 15:34:00,75.6,65.1,29.92,ESE,107,4.0,7.0,70,0.00,,,0.00,Wunderground v.1.15,2013-08-30 20:34:00,
2013-08-30 15:37:00,75.7,66.0,29.92,SE,135,5.0,-999.0,72,0.00,,,0.00,Wunderground v.1.15,2013-08-30 20:37:00,
2013-08-30 15:39:00,75.2,65.1,29.92,SE,136,3.0,9.0,71,0.00,,,0.00,Wunderground v.1.15,2013-08-30 20:39:00,
2013-08-30 15:42:00,75.7,66.0,29.92,SE,135,5.0,-999.0,72,0.00,,,0.00,Wunderground v.1.15,2013-08-30 20:42:00,
2013-08-30 15:44:00,75.1,64.6,29.92,SE,130,7.0,9.0,70,0.00,,,0.00,Wunderground v.1.15,2013-08-30 20:44:00,
2013-08-30 15:47:00,75.1,65.5,29.92,ESE,113,5.0,-999.0,72,0.00,,,0.00,Wunderground v.1.15,2013-08-30 20:47:00,
2013-08-30 15:49:00,75.0,66.1,29.92,East,98,4.0,9.0,74,0.00,,,0.00,Wunderground v.1.15,2013-08-30 20:49:00,
2013-08-30 15:52:00,75.1,65.5,29.92,ESE,113,5.0,-999.0,72,0.00,,,0.00,Wunderground v.1.15,2013-08-30 20:52:00,
2013-08-30 15:54:00,74.8,65.6,29.92,ESE,113,5.0,9.0,73,0.00,,,0.00,Wunderground v.1.15,2013-08-30 20:54:00,
2013-08-30 15:57:00,75.1,65.5,29.92,ESE,113,5.0,-999.0,72,0.00,,,0.00,Wunderground v.1.15,2013-08-30 20:57:00,
2013-08-30 15:59:00,74.6,65.0,29.92,SE,146,4.0,9.0,72,0.00,,,0.00,Wunderground v.1.15,2013-08-30 20:59:00,
2013-08-30 16:02:00,75.1,65.5,29.92,ESE,113,5.0,-999.0,72,0.00,,,0.00,Wunderground v.1.15,2013-08-30 21:02:00,
2013-08-30 16:04:00,74.6,65.0,29.92,SE,124,4.0,7.0,72,0.00,,,0.00,Wunderground v.1.15,2013-08-30 21:04:00,
2013-08-30 16:07:00,75.1,65.5,29.92,ESE,113,5.0,-999.0,72,0.00,,,0.00,Wunderground v.1.15,2013-08-30 21:07:00,
2013-08-30 16:09:00,74.6,65.4,29.92,ESE,105,2.0,7.0,73,0.00,,,0.00,Wunderground v.1.15,2013-08-30 21:09:00,
2013-08-30 16:12:00,75.1,65.5,29.92,ESE,113,5.0,-999.0,72,0.00,,,0.00,Wunderground v.1.15,2013-08-30 21:12:00,
2013-08-30 16:14:00,74.5,64.5,29.92,East,96,2.0,9.0,71,0.00,,,0.00,Wunderground v.1.15,2013-08-30 21:14:00,
2013-08-30 16:17:00,74.5,64.9,29.92,East,90,5.0,-999.0,72,0.00,,,0.00,Wunderground v.1.15,2013-08-30 21:17:00,
2013-08-30 16:19:00,74.5,65.3,29.92,East,91,4.0,9.0,73,0.00,,,0.00,Wunderground v.1.15,2013-08-30 21:19:00,
2013-08-30 16:22:00,74.5,64.9,29.92,East,90,5.0,-999.0,72,0.00,,,0.00,Wunderground v.1.15,2013-08-30 21:22:00,
2013-08-30 16:24:00,74.5,64.9,29.92,ENE,70,6.0,9.0,72,0.00,,,0.00,Wunderground v.1.15,2013-08-30 21:24:00,
2013-08-30 16:27:00,74.5,64.9,29.92,East,90,5.0,-999.0,72,0.00,,,0.00,Wunderground v.1.15,2013-08-30 21:27:00,
2013-08-30 16:29:00,74.4,64.8,29.92,East,86,5.0,9.0,72,0.00,,,0.00,Wunderground v.1.15,2013-08-30 21:29:00,
2013-08-30 16:32:00,74.5,64.9,29.92,East,90,5.0,-999.0,72,0.00,,,0.00,Wunderground v.1.15,2013-08-30 21:32:00,
2013-08-30 16:34:00,74.5,64.9,29.92,East,91,4.0,6.0,72,0.00,,,0.00,Wunderground v.1.15,2013-08-30 21:34:00,
2013-08-30 16:37:00,74.5,64.9,29.92,East,90,5.0,-999.0,72,0.00,,,0.00,Wunderground v.1.15,2013-08-30 21:37:00,
2013-08-30 16:39:00,74.7,65.1,29.92,East,96,4.0,6.0,72,0.00,,,0.00,Wunderground v.1.15,2013-08-30 21:39:00,
2013-08-30 16:42:00,74.5,64.9,29.92,East,90,5.0,-999.0,72,0.00,,,0.00,Wunderground v.1.15,2013-08-30 21:42:00,
2013-08-30 16:44:00,74.7,64.7,29.92,ENE,72,3.0,6.0,71,0.00,,,0.00,Wunderground v.1.15,2013-08-30 21:44:00,
2013-08-30 16:47:00,74.8,64.8,29.91,ENE,68,4.0,-999.0,71,0.00,,,0.00,Wunderground v.1.15,2013-08-30 21:47:00,
2013-08-30 16:49:00,75.0,65.4,29.91,ENE,70,5.0,6.0,72,0.00,,,0.00,Wunderground v.1.15,2013-08-30 21:49:00,
2013-08-30 16:52:00,74.8,64.8,29.91,ENE,68,4.0,-999.0,71,0.00,,,0.00,Wunderground v.1.15,2013-08-30 21:52:00,
2013-08-30 16:54:00,74.9,64.9,29.91,ENE,65,7.0,7.0,71,0.00,,,0.00,Wunderground v.1.15,2013-08-30 21:54:00,
2013-08-30 16:57:00,74.8,64.8,29.91,ENE,68,4.0,-999.0,71,0.00,,,0.00,Wunderground v.1.15,2013-08-30 21:57:00,
2013-08-30 16:59:00,75.0,63.7,29.91,East,89,4.0,7.0,68,0.00,,,0.00,Wunderground v.1.15,2013-08-30 21:59:00,
2013-08-30 17:02:00,74.8,64.8,29.91,ENE,68,4.0,-999.0,71,0.00,,,0.00,Wunderground v.1.15,2013-08-30 22:02:00,
2013-08-30 17:04:00,74.8,64.8,29.91,East,84,4.0,7.0,71,0.00,,,0.00,Wunderground v.1.15,2013-08-30 22:04:00,
2013-08-30 17:07:00,74.8,64.8,29.91,ENE,68,4.0,-999.0,71,0.00,,,0.00,Wunderground v.1.15,2013-08-30 22:07:00,
2013-08-30 17:09:00,74.9,64.0,29.91,ENE,71,5.0,7.0,69,0.00,,,0.00,Wunderground v.1.15,2013-08-30 22:09:00,
2013-08-30 17:12:00,74.8,64.8,29.91,ENE,68,4.0,-999.0,71,0.00,,,0.00,Wunderground v.1.15,2013-08-30 22:12:00,
2013-08-30 17:14:00,74.6,63.8,29.91,ENE,64,6.0,8.0,69,0.00,,,0.00,Wunderground v.1.15,2013-08-30 22:14:00,
2013-08-30 17:17:00,74.5,64.9,29.91,ENE,68,5.0,-999.0,72,0.00,,,0.00,Wunderground v.1.15,2013-08-30 22:17:00,
2013-08-30 17:19:00,74.3,63.9,29.91,ESE,109,4.0,8.0,70,0.00,,,0.00,Wunderground v.1.15,2013-08-30 22:19:00,
2013-08-30 17:22:00,74.5,64.9,29.91,ENE,68,5.0,-999.0,72,0.00,,,0.00,Wunderground v.1.15,2013-08-30 22:22:00,
2013-08-30 17:24:00,74.2,63.0,29.91,ENE,71,6.0,9.0,68,0.00,,,0.00,Wunderground v.1.15,2013-08-30 22:24:00,
2013-08-30 17:27:00,74.5,64.9,29.91,ENE,68,5.0,-999.0,72,0.00,,,0.00,Wunderground v.1.15,2013-08-30 22:27:00,
2013-08-30 17:29:00,74.2,64.6,29.91,East,98,3.0,9.0,72,0.00,,,0.00,Wunderground v.1.15,2013-08-30 22:29:00,
2013-08-30 17:32:00,74.5,64.9,29.91,ENE,68,5.0,-999.0,72,0.00,,,0.00,Wunderground v.1.15,2013-08-30 22:32:00,
2013-08-30 17:34:00,74.2,64.6,29.91,East,100,4.0,6.0,72,0.00,,,0.00,Wunderground v.1.15,2013-08-30 22:34:00,
2013-08-30 17:37:00,74.5,64.9,29.91,ENE,68,5.0,-999.0,72,0.00,,,0.00,Wunderground v.1.15,2013-08-30 22:37:00,
2013-08-30 17:39:00,74.2,63.8,29.91,East,79,6.0,7.0,70,0.00,,,0.00,Wunderground v.1.15,2013-08-30 22:39:00,
2013-08-30 17:42:00,74.5,64.9,29.91,ENE,68,5.0,-999.0,72,0.00,,,0.00,Wunderground v.1.15,2013-08-30 22:42:00,
2013-08-30 17:44:00,74.1,63.7,29.91,East,98,4.0,6.0,70,0.00,,,0.00,Wunderground v.1.15,2013-08-30 22:44:00,
2013-08-30 17:47:00,74.1,64.1,29.91,ENE,68,4.0,-999.0,71,0.00,,,0.00,Wunderground v.1.15,2013-08-30 22:47:00,
2013-08-30 17:49:00,74.2,64.2,29.91,ESE,115,3.0,6.0,71,0.00,,,0.00,Wunderground v.1.15,2013-08-30 22:49:00,
2013-08-30 17:52:00,74.1,64.1,29.91,ENE,68,4.0,-999.0,71,0.00,,,0.00,Wunderground v.1.15,2013-08-30 22:52:00,
2013-08-30 17:54:00,74.0,64.0,29.91,NE,51,4.0,7.0,71,0.00,,,0.00,Wunderground v.1.15,2013-08-30 22:54:00,
2013-08-30 17:57:00,74.1,64.1,29.91,ENE,68,4.0,-999.0,71,0.00,,,0.00,Wunderground v.1.15,2013-08-30 22:57:00,
2013-08-30 17:59:00,73.8,63.8,29.91,NE,56,3.0,7.0,71,0.00,,,0.00,Wunderground v.1.15,2013-08-30 22:59:00,
2013-08-30 18:02:00,74.1,64.1,29.91,ENE,68,4.0,-999.0,71,0.00,,,0.00,Wunderground v.1.15,2013-08-30 23:02:00,
2013-08-30 18:04:00,73.7,62.9,29.91,NE,56,4.0,6.0,69,0.00,,,0.00,Wunderground v.1.15,2013-08-30 23:04:00,
2013-08-30 18:07:00,74.1,64.1,29.91,ENE,68,4.0,-999.0,71,0.00,,,0.00,Wunderground v.1.15,2013-08-30 23:07:00,
2013-08-30 18:09:00,73.6,63.2,29.91,ENE,74,4.0,6.0,70,0.00,,,0.00,Wunderground v.1.15,2013-08-30 23:09:00,
2013-08-30 18:12:00,74.1,64.1,29.91,ENE,68,4.0,-999.0,71,0.00,,,0.00,Wunderground v.1.15,2013-08-30 23:12:00,
2013-08-30 18:14:00,73.7,63.3,29.91,ENE,76,2.0,4.0,70,0.00,,,0.00,Wunderground v.1.15,2013-08-30 23:14:00,
2013-08-30 18:17:00,73.6,63.6,29.91,ENE,68,3.0,-999.0,71,0.00,,,0.00,Wunderground v.1.15,2013-08-30 23:17:00,
2013-08-30 18:19:00,73.7,63.7,29.91,ENE,64,2.0,4.0,71,0.00,,,0.00,Wunderground v.1.15,2013-08-30 23:19:00,
2013-08-30 18:22:00,73.6,63.6,29.91,ENE,68,3.0,-999.0,71,0.00,,,0.00,Wunderground v.1.15,2013-08-30 23:22:00,
2013-08-30 18:24:00,73.6,63.6,29.91,NE,49,1.0,3.0,71,0.00,,,0.00,Wunderground v.1.15,2013-08-30 23:24:00,
2013-08-30 18:27:00,73.6,63.6,29.91,ENE,68,3.0,-999.0,71,0.00,,,0.00,Wunderground v.1.15,2013-08-30 23:27:00,
2013-08-30 18:29:00,73.3,63.3,29.91,ENE,63,3.0,4.0,71,0.00,,,0.00,Wunderground v.1.15,2013-08-30 23:29:00,
2013-08-30 18:32:00,73.6,63.6,29.91,ENE,68,3.0,-999.0,71,0.00,,,0.00,Wunderground v.1.15,2013-08-30 23:32:00,
2013-08-30 18:34:00,73.1,62.7,29.91,ENE,57,4.0,5.0,70,0.00,,,0.00,Wunderground v.1.15,2013-08-30 23:34:00,
2013-08-30 18:37:00,73.6,63.6,29.91,ENE,68,3.0,-999.0,71,0.00,,,0.00,Wunderground v.1.15,2013-08-30 23:37:00,
2013-08-30 18:39:00,72.9,62.9,29.90,ENE,71,4.0,6.0,71,0.00,,,0.00,Wunderground v.1.15,2013-08-30 23:39:00,
2013-08-30 18:42:00,73.6,63.6,29.91,ENE,68,3.0,-999.0,71,0.00,,,0.00,Wunderground v.1.15,2013-08-30 23:42:00,
2013-08-30 18:44:00,72.6,62.7,29.90,ENE,66,4.0,6.0,71,0.00,,,0.00,Wunderground v.1.15,2013-08-30 23:44:00,
2013-08-30 18:47:00,72.4,64.0,29.91,ENE,68,3.0,-999.0,75,0.00,,,0.00,Wunderground v.1.15,2013-08-30 23:47:00,
2013-08-30 18:49:00,72.2,63.1,29.90,ENE,74,3.0,6.0,73,0.00,,,0.00,Wunderground v.1.15,2013-08-30 23:49:00,
2013-08-30 18:52:00,72.4,64.0,29.91,ENE,68,3.0,-999.0,75,0.00,,,0.00,Wunderground v.1.15,2013-08-30 23:52:00,
2013-08-30 18:54:00,71.9,63.2,29.90,ENE,72,2.0,4.0,74,0.00,,,0.00,Wunderground v.1.15,2013-08-30 23:54:00,
2013-08-30 18:57:00,72.4,64.0,29.91,ENE,68,3.0,-999.0,75,0.00,,,0.00,Wunderground v.1.15,2013-08-30 23:57:00,
2013-08-30 18:59:00,71.6,63.3,29.91,ENE,64,3.0,4.0,75,0.00,,,0.00,Wunderground v.1.15,2013-08-30 23:59:00,
2013-08-30 19:02:00,72.4,64.0,29.91,ENE,68,3.0,-999.0,75,0.00,,,0.00,Wunderground v.1.15,2013-08-31 00:02:00,
2013-08-30 19:04:00,71.3,63.0,29.91,NE,51,3.0,5.0,75,0.00,,,0.00,Wunderground v.1.15,2013-08-31 00:04:00,
2013-08-30 19:07:00,72.4,64.0,29.91,ENE,68,3.0,-999.0,75,0.00,,,0.00,Wunderground v.1.15,2013-08-31 00:07:00,
2013-08-30 19:09:00,70.9,63.3,29.91,ENE,65,2.0,5.0,77,0.00,,,0.00,Wunderground v.1.15,2013-08-31 00:09:00,
2013-08-30 19:12:00,72.4,64.0,29.91,ENE,68,3.0,-999.0,75,0.00,,,0.00,Wunderground v.1.15,2013-08-31 00:12:00,
2013-08-30 19:14:00,70.4,63.6,29.91,ENE,71,3.0,3.0,79,0.00,,,0.00,Wunderground v.1.15,2013-08-31 00:14:00,
2013-08-30 19:17:00,70.1,64.0,29.90,ENE,68,3.0,-999.0,81,0.00,,,0.00,Wunderground v.1.15,2013-08-31 00:17:00,
2013-08-30 19:19:00,69.9,63.4,29.91,ENE,70,2.0,5.0,80,0.00,,,0.00,Wunderground v.1.15,2013-08-31 00:19:00,
2013-08-30 19:22:00,70.1,64.0,29.90,ENE,68,3.0,-999.0,81,0.00,,,0.00,Wunderground v.1.15,2013-08-31 00:22:00,
2013-08-30 19:24:00,69.4,63.3,29.90,ENE,65,6.0,6.0,81,0.00,,,0.00,Wunderground v.1.15,2013-08-31 00:24:00,
2013-08-30 19:27:00,70.1,64.0,29.90,ENE,68,3.0,-999.0,81,0.00,,,0.00,Wunderground v.1.15,2013-08-31 00:27:00,
2013-08-30 19:29:00,69.0,62.9,29.90,ENE,70,4.0,8.0,81,0.00,,,0.00,Wunderground v.1.15,2013-08-31 00:29:00,
2013-08-30 19:32:00,70.1,64.0,29.90,ENE,68,3.0,-999.0,81,0.00,,,0.00,Wunderground v.1.15,2013-08-31 00:32:00,
2013-08-30 19:34:00,68.6,62.9,29.90,ENE,67,4.0,8.0,82,0.00,,,0.00,Wunderground v.1.15,2013-08-31 00:34:00,
2013-08-30 19:37:00,70.1,64.0,29.90,ENE,68,3.0,-999.0,81,0.00,,,0.00,Wunderground v.1.15,2013-08-31 00:37:00,
2013-08-30 19:39:00,68.3,62.6,29.90,NE,53,2.0,8.0,82,0.00,,,0.00,Wunderground v.1.15,2013-08-31 00:39:00,
2013-08-30 19:42:00,70.1,64.0,29.90,ENE,68,3.0,-999.0,81,0.00,,,0.00,Wunderground v.1.15,2013-08-31 00:42:00,
2013-08-30 19:44:00,67.9,62.9,29.91,ENE,60,5.0,5.0,84,0.00,,,0.00,Wunderground v.1.15,2013-08-31 00:44:00,
2013-08-30 19:47:00,67.8,63.8,29.91,ENE,68,3.0,-999.0,87,0.00,,,0.00,Wunderground v.1.15,2013-08-31 00:47:00,
2013-08-30 19:49:00,67.6,62.6,29.91,NE,56,3.0,7.0,84,0.00,,,0.00,Wunderground v.1.15,2013-08-31 00:49:00,
2013-08-30 19:52:00,67.8,63.8,29.91,ENE,68,3.0,-999.0,87,0.00,,,0.00,Wunderground v.1.15,2013-08-31 00:52:00,
2013-08-30 19:54:00,67.3,62.6,29.91,ENE,60,3.0,7.0,85,0.00,,,0.00,Wunderground v.1.15,2013-08-31 00:54:00,
2013-08-30 19:57:00,67.8,63.8,29.91,ENE,68,3.0,-999.0,87,0.00,,,0.00,Wunderground v.1.15,2013-08-31 00:57:00,
2013-08-30 19:59:00,66.9,62.6,29.91,ENE,76,2.0,7.0,86,0.00,,,0.00,Wunderground v.1.15,2013-08-31 00:59:00,
2013-08-30 20:02:00,67.8,63.8,29.91,ENE,68,3.0,-999.0,87,0.00,,,0.00,Wunderground v.1.15,2013-08-31 01:02:00,
2013-08-30 20:04:00,66.6,62.9,29.91,ENE,60,4.0,6.0,88,0.00,,,0.00,Wunderground v.1.15,2013-08-31 01:04:00,
2013-08-30 20:07:00,67.8,63.8,29.91,ENE,68,3.0,-999.0,87,0.00,,,0.00,Wunderground v.1.15,2013-08-31 01:07:00,
2013-08-30 20:09:00,66.4,63.1,29.91,NE,54,5.0,7.0,89,0.00,,,0.00,Wunderground v.1.15,2013-08-31 01:09:00,
2013-08-30 20:12:00,67.8,63.8,29.91,ENE,68,3.0,-999.0,87,0.00,,,0.00,Wunderground v.1.15,2013-08-31 01:12:00,
2013-08-30 20:14:00,66.2,63.2,29.91,ENE,60,3.0,6.0,90,0.00,,,0.00,Wunderground v.1.15,2013-08-31 01:14:00,
2013-08-30 20:17:00,66.1,63.7,29.91,ENE,68,3.0,-999.0,92,0.00,,,0.00,Wunderground v.1.15,2013-08-31 01:17:00,
2013-08-30 20:19:00,66.1,63.4,29.91,NE,37,2.0,6.0,91,0.00,,,0.00,Wunderground v.1.15,2013-08-31 01:19:00,
2013-08-30 20:22:00,66.1,63.7,29.91,ENE,68,3.0,-999.0,92,0.00,,,0.00,Wunderground v.1.15,2013-08-31 01:22:00,
2013-08-30 20:24:00,65.9,63.5,29.91,ENE,57,2.0,5.0,92,0.00,,,0.00,Wunderground v.1.15,2013-08-31 01:24:00,
2013-08-30 20:27:00,66.1,63.7,29.91,ENE,68,3.0,-999.0,92,0.00,,,0.00,Wunderground v.1.15,2013-08-31 01:27:00,
2013-08-30 20:29:00,65.7,63.3,29.91,ENE,64,3.0,5.0,92,0.00,,,0.00,Wunderground v.1.15,2013-08-31 01:29:00,
2013-08-30 20:32:00,66.1,63.7,29.91,ENE,68,3.0,-999.0,92,0.00,,,0.00,Wunderground v.1.15,2013-08-31 01:32:00,
2013-08-30 20:34:00,65.5,63.4,29.91,ENE,60,2.0,4.0,93,0.00,,,0.00,Wunderground v.1.15,2013-08-31 01:34:00,
2013-08-30 20:37:00,66.1,63.7,29.91,ENE,68,3.0,-999.0,92,0.00,,,0.00,Wunderground v.1.15,2013-08-31 01:37:00,
2013-08-30 20:39:00,65.2,63.1,29.91,NE,49,2.0,4.0,93,0.00,,,0.00,Wunderground v.1.15,2013-08-31 01:39:00,
2013-08-30 20:42:00,66.1,63.7,29.91,ENE,68,3.0,-999.0,92,0.00,,,0.00,Wunderground v.1.15,2013-08-31 01:42:00,
2013-08-30 20:44:00,65.1,63.3,29.91,ENE,70,1.0,2.0,94,0.00,,,0.00,Wunderground v.1.15,2013-08-31 01:44:00,
2013-08-30 20:47:00,65.0,63.5,29.91,ENE,68,1.0,-999.0,95,0.00,,,0.00,Wunderground v.1.15,2013-08-31 01:47:00,
2013-08-30 20:49:00,64.9,63.1,29.91,NE,45,0.0,2.0,94,0.00,,,0.00,Wunderground v.1.15,2013-08-31 01:49:00,
2013-08-30 20:52:00,65.0,63.5,29.91,ENE,68,1.0,-999.0,95,0.00,,,0.00,Wunderground v.1.15,2013-08-31 01:52:00,
2013-08-30 20:54:00,64.8,63.0,29.91,NNE,33,2.0,2.0,94,0.00,,,0.00,Wunderground v.1.15,2013-08-31 01:54:00,
2013-08-30 20:57:00,65.0,63.5,29.91,ENE,68,1.0,-999.0,95,0.00,,,0.00,Wunderground v.1.15,2013-08-31 01:57:00,
2013-08-30 20:59:00,64.6,63.1,29.91,NE,51,1.0,3.0,95,0.00,,,0.00,Wunderground v.1.15,2013-08-31 01:59:00,
2013-08-30 21:02:00,65.0,63.5,29.91,ENE,68,1.0,-999.0,95,0.00,,,0.00,Wunderground v.1.15,2013-08-31 02:02:00,
2013-08-30 21:04:00,64.6,63.1,29.92,NE,50,0.0,3.0,95,0.00,,,0.00,Wunderground v.1.15,2013-08-31 02:04:00,
2013-08-30 21:07:00,65.0,63.5,29.91,ENE,68,1.0,-999.0,95,0.00,,,0.00,Wunderground v.1.15,2013-08-31 02:07:00,
2013-08-30 21:09:00,64.4,62.9,29.92,ENE,60,0.0,3.0,95,0.00,,,0.00,Wunderground v.1.15,2013-08-31 02:09:00,
2013-08-30 21:12:00,65.0,63.5,29.91,ENE,68,1.0,-999.0,95,0.00,,,0.00,Wunderground v.1.15,2013-08-31 02:12:00,
2013-08-30 21:14:00,64.2,63.0,29.91,ENE,74,0.0,0.0,96,0.00,,,0.00,Wunderground v.1.15,2013-08-31 02:14:00,
2013-08-30 21:17:00,64.1,62.9,29.92,ESE,113,0.0,-999.0,96,0.00,,,0.00,Wunderground v.1.15,2013-08-31 02:17:00,
2013-08-30 21:19:00,64.0,62.8,29.91,ENE,70,0.0,0.0,96,0.00,,,0.00,Wunderground v.1.15,2013-08-31 02:19:00,
2013-08-30 21:22:00,64.1,62.9,29.92,ESE,113,0.0,-999.0,96,0.00,,,0.00,Wunderground v.1.15,2013-08-31 02:22:00,
2013-08-30 21:24:00,63.8,62.6,29.91,NE,56,0.0,0.0,96,0.00,,,0.00,Wunderground v.1.15,2013-08-31 02:24:00,
2013-08-30 21:27:00,64.1,62.9,29.92,ESE,113,0.0,-999.0,96,0.00,,,0.00,Wunderground v.1.15,2013-08-31 02:27:00,
2013-08-30 21:29:00,63.6,62.4,29.92,ESE,117,1.0,3.0,96,0.00,,,0.00,Wunderground v.1.15,2013-08-31 02:29:00,
2013-08-30 21:32:00,64.1,62.9,29.92,ESE,113,0.0,-999.0,96,0.00,,,0.00,Wunderground v.1.15,2013-08-31 02:32:00,
2013-08-30 21:34:00,63.1,61.9,29.91,ESE,115,0.0,1.0,96,0.00,,,0.00,Wunderground v.1.15,2013-08-31 02:34:00,
2013-08-30 21:37:00,64.1,62.9,29.92,ESE,113,0.0,-999.0,96,0.00,,,0.00,Wunderground v.1.15,2013-08-31 02:37:00,
2013-08-30 21:38:00,63.0,62.1,29.91,ESE,117,0.0,1.0,97,0.00,,,0.00,Wunderground v.1.15,2013-08-31 02:38:00,
2013-08-30 21:42:00,64.1,62.9,29.92,ESE,113,0.0,-999.0,96,0.00,,,0.00,Wunderground v.1.15,2013-08-31 02:42:00,
2013-08-30 21:43:00,63.0,62.4,29.91,ESE,114,0.0,0.0,98,0.00,,,0.00,Wunderground v.1.15,2013-08-31 02:43:00,
2013-08-30 21:47:00,63.2,62.9,29.91,ESE,113,0.0,-999.0,99,0.00,,,0.00,Wunderground v.1.15,2013-08-31 02:47:00,
2013-08-30 21:48:00,63.2,62.6,29.91,ESE,103,0.0,0.0,98,0.00,,,0.00,Wunderground v.1.15,2013-08-31 02:48:00,
2013-08-30 21:52:00,63.2,62.9,29.91,ESE,113,0.0,-999.0,99,0.00,,,0.00,Wunderground v.1.15,2013-08-31 02:52:00,
2013-08-30 21:53:00,63.4,63.1,29.91,ENE,68,0.0,0.0,99,0.00,,,0.00,Wunderground v.1.15,2013-08-31 02:53:00,
2013-08-30 21:57:00,63.2,62.9,29.91,ESE,113,0.0,-999.0,99,0.00,,,0.00,Wunderground v.1.15,2013-08-31 02:57:00,
2013-08-30 21:58:00,63.6,63.3,29.92,ENE,68,0.0,0.0,99,0.00,,,0.00,Wunderground v.1.15,2013-08-31 02:58:00,
2013-08-30 22:02:00,63.2,62.9,29.91,ESE,113,0.0,-999.0,99,0.00,,,0.00,Wunderground v.1.15,2013-08-31 03:02:00,
2013-08-30 22:03:00,63.7,63.4,29.91,ENE,70,0.0,0.0,99,0.00,,,0.00,Wunderground v.1.15,2013-08-31 03:03:00,
2013-08-30 22:07:00,63.2,62.9,29.91,ESE,113,0.0,-999.0,99,0.00,,,0.00,Wunderground v.1.15,2013-08-31 03:07:00,
2013-08-30 22:08:00,63.5,62.9,29.91,East,82,0.0,0.0,98,0.00,,,0.00,Wunderground v.1.15,2013-08-31 03:08:00,
2013-08-30 22:12:00,63.2,62.9,29.91,ESE,113,0.0,-999.0,99,0.00,,,0.00,Wunderground v.1.15,2013-08-31 03:12:00,
2013-08-30 22:13:00,63.3,62.7,29.90,East,82,0.0,0.0,98,0.00,,,0.00,Wunderground v.1.15,2013-08-31 03:13:00,
2013-08-30 22:17:00,63.3,62.7,29.91,N/A,-737280,0.0,-999.0,98,0.00,,,0.00,Wunderground v.1.15,2013-08-31 03:17:00,
2013-08-30 22:18:00,63.3,63.0,29.91,East,79,0.0,0.0,99,0.00,,,0.00,Wunderground v.1.15,2013-08-31 03:18:00,
2013-08-30 22:22:00,63.3,62.7,29.91,N/A,-737280,0.0,-999.0,98,0.00,,,0.00,Wunderground v.1.15,2013-08-31 03:22:00,
2013-08-30 22:23:00,63.3,63.0,29.91,East,79,0.0,0.0,99,0.00,,,0.00,Wunderground v.1.15,2013-08-31 03:23:00,
2013-08-30 22:27:00,63.3,62.7,29.91,N/A,-737280,0.0,-999.0,98,0.00,,,0.00,Wunderground v.1.15,2013-08-31 03:27:00,
2013-08-30 22:28:00,63.0,62.4,29.91,WNW,287,0.0,0.0,98,0.00,,,0.00,Wunderground v.1.15,2013-08-31 03:28:00,
2013-08-30 22:32:00,63.3,62.7,29.91,N/A,-737280,0.0,-999.0,98,0.00,,,0.00,Wunderground v.1.15,2013-08-31 03:32:00,
2013-08-30 22:33:00,62.8,62.5,29.91,WNW,287,0.0,0.0,99,0.00,,,0.00,Wunderground v.1.15,2013-08-31 03:33:00,
2013-08-30 22:37:00,63.3,62.7,29.91,N/A,-737280,0.0,-999.0,98,0.00,,,0.00,Wunderground v.1.15,2013-08-31 03:37:00,
2013-08-30 22:38:00,62.7,62.4,29.91,WNW,287,0.0,0.0,99,0.00,,,0.00,Wunderground v.1.15,2013-08-31 03:38:00,
2013-08-30 22:42:00,63.3,62.7,29.91,N/A,-737280,0.0,-999.0,98,0.00,,,0.00,Wunderground v.1.15,2013-08-31 03:42:00,
2013-08-30 22:43:00,62.8,62.5,29.91,WNW,287,0.0,0.0,99,0.00,,,0.00,Wunderground v.1.15,2013-08-31 03:43:00,
2013-08-30 22:47:00,62.7,62.4,29.91,N/A,-737280,0.0,-999.0,99,0.00,,,0.00,Wunderground v.1.15,2013-08-31 03:47:00,
2013-08-30 22:48:00,62.7,62.4,29.91,WNW,287,0.0,0.0,99,0.00,,,0.00,Wunderground v.1.15,2013-08-31 03:48:00,
2013-08-30 22:52:00,62.7,62.4,29.91,N/A,-737280,0.0,-999.0,99,0.00,,,0.00,Wunderground v.1.15,2013-08-31 03:52:00,
2013-08-30 22:53:00,62.7,62.4,29.91,WNW,287,0.0,0.0,99,0.00,,,0.00,Wunderground v.1.15,2013-08-31 03:53:00,
2013-08-30 22:57:00,62.7,62.4,29.91,N/A,-737280,0.0,-999.0,99,0.00,,,0.00,Wunderground v.1.15,2013-08-31 03:57:00,
2013-08-30 22:58:00,62.6,62.3,29.91,WNW,287,0.0,0.0,99,0.00,,,0.00,Wunderground v.1.15,2013-08-31 03:58:00,
2013-08-30 23:01:00,62.6,62.3,29.91,WNW,287,0.0,0.0,99,0.00,,,0.00,Wunderground v.1.15,2013-08-31 04:01:00,
2013-08-30 23:02:00,62.7,62.4,29.91,N/A,-737280,0.0,-999.0,99,0.00,,,0.00,Wunderground v.1.15,2013-08-31 04:02:00,
2013-08-30 23:06:00,62.4,62.1,29.91,WNW,287,0.0,0.0,99,0.00,,,0.00,Wunderground v.1.15,2013-08-31 04:06:00,
2013-08-30 23:07:00,62.7,62.4,29.91,N/A,-737280,0.0,-999.0,99,0.00,,,0.00,Wunderground v.1.15,2013-08-31 04:07:00,
2013-08-30 23:11:00,62.4,62.1,29.91,ENE,68,0.0,0.0,99,0.00,,,0.00,Wunderground v.1.15,2013-08-31 04:11:00,
2013-08-30 23:12:00,62.7,62.4,29.91,N/A,-737280,0.0,-999.0,99,0.00,,,0.00,Wunderground v.1.15,2013-08-31 04:12:00,
2013-08-30 23:16:00,62.3,62.0,29.91,ENE,68,0.0,0.0,99,0.00,,,0.00,Wunderground v.1.15,2013-08-31 04:16:00,
2013-08-30 23:17:00,62.5,62.5,29.91,N/A,-737280,0.0,-999.0,100,0.00,,,0.00,Wunderground v.1.15,2013-08-31 04:17:00,
2013-08-30 23:21:00,62.2,61.9,29.91,ENE,68,0.0,0.0,99,0.00,,,0.00,Wunderground v.1.15,2013-08-31 04:21:00,
2013-08-30 23:22:00,62.5,62.5,29.91,N/A,-737280,0.0,-999.0,100,0.00,,,0.00,Wunderground v.1.15,2013-08-31 04:22:00,
2013-08-30 23:26:00,62.6,62.6,29.91,ENE,68,0.0,0.0,100,0.00,,,0.00,Wunderground v.1.15,2013-08-31 04:26:00,
2013-08-30 23:27:00,62.5,62.5,29.91,N/A,-737280,0.0,-999.0,100,0.00,,,0.00,Wunderground v.1.15,2013-08-31 04:27:00,
2013-08-30 23:31:00,63.2,63.2,29.91,ENE,67,0.0,0.0,100,0.00,,,0.00,Wunderground v.1.15,2013-08-31 04:31:00,
2013-08-30 23:32:00,62.5,62.5,29.91,N/A,-737280,0.0,-999.0,100,0.00,,,0.00,Wunderground v.1.15,2013-08-31 04:32:00,
2013-08-30 23:36:00,63.4,63.4,29.91,ENE,67,0.0,0.0,100,0.00,,,0.00,Wunderground v.1.15,2013-08-31 04:36:00,
2013-08-30 23:37:00,62.5,62.5,29.91,N/A,-737280,0.0,-999.0,100,0.00,,,0.00,Wunderground v.1.15,2013-08-31 04:37:00,
2013-08-30 23:41:00,63.7,63.7,29.91,ENE,63,0.0,0.0,100,0.00,,,0.00,Wunderground v.1.15,2013-08-31 04:41:00,
2013-08-30 23:42:00,62.5,62.5,29.91,N/A,-737280,0.0,-999.0,100,0.00,,,0.00,Wunderground v.1.15,2013-08-31 04:42:00,
2013-08-30 23:46:00,63.8,63.8,29.92,ENE,63,0.0,0.0,100,0.00,,,0.00,Wunderground v.1.15,2013-08-31 04:46:00,
2013-08-30 23:47:00,63.7,63.7,29.92,N/A,-737280,0.0,-999.0,100,0.00,,,0.00,Wunderground v.1.15,2013-08-31 04:47:00,
2013-08-30 23:51:00,63.9,63.9,29.92,ENE,63,0.0,0.0,100,0.00,,,0.00,Wunderground v.1.15,2013-08-31 04:51:00,
2013-08-30 23:52:00,63.7,63.7,29.92,N/A,-737280,0.0,-999.0,100,0.00,,,0.00,Wunderground v.1.15,2013-08-31 04:52:00,
2013-08-30 23:56:00,63.9,63.9,29.92,ENE,64,0.0,0.0,100,0.00,,,0.00,Wunderground v.1.15,2013-08-31 04:56:00,
2013-08-30 23:57:00,63.7,63.7,29.92,N/A,-737280,0.0,-999.0,100,0.00,,,0.00,Wunderground v.1.15,2013-08-31 04:57:00,